WSSSWMKC

Guest
Details From WSSS - Singapore Changi Intl. Airport
To WMKC - Kota Bahru Sultan Ismail Petra
Flight Number -
Tags decoded
Created
Modified
Stats Distance 307 nm / 568 km
Max Altitude 0 ft / 0 m
Waypoints 2
Social Downloads 4
Likes 0
Share

Download

Looking for another format? Having issues loading an existing format? Contact us
Advertisement - Login to hide

Notes

Requested: WSSS WMKC

Route

WSSS WMKC

ID Type Via Altitude (ft/m) Position (lat/lon) Dist (leg/tot) Name
O WSSS APT - 0 / 0 1.35192 / 103.99560 - / 0 nm Singapore Changi Intl. Airport
O WMKC APT - 0 / 0 6.16685 / 102.29301 306 / 306 nm Kota Bahru Sultan Ismail Petra

Altitude Profile

Advertisement - Login to hide

Weather


0- 5 10 15 20 25 30 35+ Temperature / °C

Clouds and Precipitation
Forecast for 2021-09-16 12:00 UTC. Updated 2 hours ago

Ground ~20,000 ft ~40,000 ft Winds

WSSS

Details ICAO WSSS (SIN)
Name Singapore Changi Intl
Region Singapore
Timezone Asia/Singapore (UTC+8.0)
Stats Elevation 20 ft / 6 m (AMSL)
Location 1.355510° 103.988000°
Runways 2
Magnetic Variation 0.211° E

METAR

WSSS 161130Z 07009G19KT 030V100 9999 FEW020 BKN300 29/24 Q1008 NOSIG

Decode

TAF

TAF AMD WSSS 160800Z 1608/1712 11007KT 9999 FEW015 SCT020

Decode

Departure Runways

ID Width Length Bearing (true/mag) Surface Threshold Overrun Markings Lighting
02C 197 ft / 60 m 13,187 ft / 4,020 m 22.88° / 22.67° ASPHALT 0 ft / 0 m 0 ft / 0 m PREC-APP CENTERLINE EDGE THRESHOLD ALSF-II TDZ REIL-UNI
02L 197 ft / 60 m 13,187 ft / 4,020 m 22.88° / 22.67° ASPHALT 0 ft / 0 m 0 ft / 0 m PREC-APP CENTERLINE EDGE THRESHOLD ALSF-II TDZ REIL-OMNI
20C 197 ft / 60 m 13,187 ft / 4,020 m 202.88° / 202.67° ASPHALT 0 ft / 0 m 0 ft / 0 m PREC-APP CENTERLINE EDGE THRESHOLD ALSF-I REIL-UNI
20R 197 ft / 60 m 13,187 ft / 4,020 m 202.88° / 202.67° ASPHALT 2,428 ft / 740 m 390 ft / 119 m PREC-APP CENTERLINE EDGE THRESHOLD ALSF-I REIL-OMNI

WMKC

Details ICAO WMKC (KBR)
Name Kota Bahru Sultan Ismail Petra
Region Malaysia (Peninsular Malaysia)
Timezone Asia/Kuala_Lumpur (UTC+8.0)
Stats Elevation 16 ft / 5 m (AMSL)
Location 6.166420° 102.296000°
Runways 1
Magnetic Variation 0.111° W

METAR

WMKC 161100Z 04004KT 360V080 9999 TS FEW012 FEW017CB SCT020 29/25 Q1008

Decode

TAF

TAF AMD WMKC 160944Z 1609/1706 VRB03KT 9999 FEW018 TEMPO 1609/1613 7000 -TSRA FEW017CB

Decode

Destination Runways

ID Width Length Bearing (true/mag) Surface Threshold Overrun Markings Lighting
10 148 ft / 45 m 7,881 ft / 2,402 m 99.71° / 99.82° ASPHALT 0 ft / 0 m 489 ft / 149 m PREC-APP EDGE THRESHOLD CALVERT
28 148 ft / 45 m 7,881 ft / 2,402 m 279.71° / 279.82° ASPHALT 0 ft / 0 m 0 ft / 0 m APP EDGE THRESHOLD MALS

Approach Navaids

Runway Type Ident Frequency Range Bearing (true/mag) Slope Elevation
10 LOC-ILS IKB 109.30 MHz 18 nm / 33 km 99.59° / 99.70 ° - 16 ft / 5 m (AMSL)
10 GS IKB 109.30 MHz 10 nm / 19 km 100.46° / 100.57 ° 3.00° 16 ft / 5 m (AMSL)
10 DME IKB 109.30 MHz 18 nm / 33 km - - 16 ft / 5 m (AMSL)

Popular Alternatives